createdAt,value
2019-02-02T00:01:13.678Z,95058.24
2019-02-02T00:06:17.064Z,95081.40
2019-02-02T00:11:21.655Z,95102.06
2019-02-02T00:16:25.027Z,95091.23
2019-02-02T00:21:28.488Z,95109.16
2019-02-02T00:26:32.257Z,95121.82
2019-02-02T00:31:35.551Z,95136.98
2019-02-02T00:36:39.141Z,95159.73
2019-02-02T00:41:42.536Z,95172.53
2019-02-02T00:46:46.187Z,95178.02
2019-02-02T00:51:49.721Z,95168.53
2019-02-02T00:56:53.104Z,95154.22
2019-02-02T01:01:56.833Z,95149.03
2019-02-02T01:07:00.241Z,95147.95
2019-02-02T01:12:03.676Z,95177.13
2019-02-02T01:17:07.333Z,95189.16
2019-02-02T01:22:10.757Z,95190.44
2019-02-02T01:27:14.200Z,95183.98
2019-02-02T01:32:17.669Z,95190.36
2019-02-02T01:37:21.085Z,95198.06
2019-02-02T01:42:24.500Z,95199.45
2019-02-02T01:47:28.064Z,95167.31
2019-02-02T01:52:31.585Z,95150.48
2019-02-02T01:57:35.025Z,95130.72
2019-02-02T02:02:38.480Z,95144.20
2019-02-02T02:07:42.416Z,95150.69
2019-02-02T02:12:45.964Z,95141.20
2019-02-02T02:17:49.438Z,95162.66
2019-02-02T02:22:53.435Z,95190.27
2019-02-02T02:27:57.038Z,95195.03
2019-02-02T02:33:00.658Z,95176.83
2019-02-02T02:38:04.065Z,95148.38
2019-02-02T02:43:07.707Z,95154.22
2019-02-02T02:48:11.162Z,95168.06
2019-02-02T02:53:14.731Z,95140.17
2019-02-02T02:58:18.323Z,95134.36
2019-02-02T03:03:21.939Z,95137.00
2019-02-02T03:08:25.536Z,95138.29
2019-02-02T03:13:29.091Z,95159.05
2019-02-02T03:18:32.662Z,95175.69
2019-02-02T03:23:36.408Z,95190.67
2019-02-02T03:28:39.806Z,95183.66
2019-02-02T03:33:43.430Z,95181.91
2019-02-02T03:38:46.886Z,95193.92
2019-02-02T03:43:50.454Z,95204.66
2019-02-02T03:48:53.836Z,95188.50
2019-02-02T03:54:08.259Z,95190.07
2019-02-02T03:59:06.735Z,95194.92
2019-02-02T04:04:04.333Z,95181.33
2019-02-02T04:09:08.121Z,95185.25
2019-02-02T04:14:11.619Z,95184.97
2019-02-02T04:19:15.165Z,95201.13
2019-02-02T04:24:18.670Z,95240.41
2019-02-02T04:29:22.364Z,95231.01
2019-02-02T04:34:25.928Z,95238.57
2019-02-02T04:39:29.434Z,95234.33
2019-02-02T04:44:32.922Z,95244.91
2019-02-02T04:49:36.460Z,95229.89
2019-02-02T04:54:39.972Z,95229.97
2019-02-02T04:59:43.380Z,95248.23
2019-02-02T05:04:46.744Z,95250.80
2019-02-02T05:09:50.341Z,95232.53
2019-02-02T05:14:53.801Z,95235.10
2019-02-02T05:19:57.186Z,95239.24
2019-02-02T05:25:00.570Z,95229.89
2019-02-02T05:30:04.553Z,95234.86
2019-02-02T05:35:08.541Z,95230.02
2019-02-02T05:40:13.536Z,95242.85
2019-02-02T05:45:18.193Z,95257.52
2019-02-02T05:50:23.163Z,95253.11
2019-02-02T05:55:26.545Z,95253.86
2019-02-02T06:00:47.948Z,95280.17
2019-02-02T06:05:51.348Z,95311.51
2019-02-02T06:10:54.704Z,95306.37
2019-02-02T06:15:58.117Z,95289.50
2019-02-02T06:21:01.544Z,95297.67
2019-02-02T06:26:04.954Z,95294.57
2019-02-02T06:31:08.355Z,95301.90
2019-02-02T06:36:11.740Z,95293.15
2019-02-02T06:41:15.134Z,95304.48
2019-02-02T06:46:18.591Z,95336.68
2019-02-02T06:51:21.963Z,95361.20
2019-02-02T06:56:25.380Z,95358.50
2019-02-02T07:01:29.030Z,95373.75
2019-02-02T07:06:32.481Z,95401.53
2019-02-02T07:11:35.868Z,95388.69
2019-02-02T07:16:39.300Z,95406.30
2019-02-02T07:21:42.797Z,95423.69
2019-02-02T07:26:46.202Z,95432.12
2019-02-02T07:31:49.758Z,95439.46
2019-02-02T07:36:53.146Z,95443.08
2019-02-02T07:41:56.686Z,95443.16
2019-02-02T07:47:00.050Z,95446.34
2019-02-02T07:52:03.660Z,95468.95
2019-02-02T07:57:07.040Z,95464.39
2019-02-02T08:02:10.461Z,95456.74
2019-02-02T08:07:13.832Z,95464.98
2019-02-02T08:12:19.474Z,95470.44
2019-02-02T08:17:20.649Z,95461.63
2019-02-02T08:22:24.046Z,95449.48
2019-02-02T08:27:27.441Z,95459.22
2019-02-02T08:32:30.848Z,95472.23
2019-02-02T08:37:34.344Z,95474.11
2019-02-02T08:42:37.764Z,95472.00
2019-02-02T08:47:41.416Z,95477.20
2019-02-02T08:52:44.818Z,95488.07
2019-02-02T08:57:48.415Z,95492.08
2019-02-02T09:02:52.082Z,95500.53
2019-02-02T09:07:55.644Z,95466.32
2019-02-02T09:12:59.156Z,95476.51
2019-02-02T09:18:02.740Z,95504.03
2019-02-02T09:23:06.827Z,95524.18
2019-02-02T09:28:09.702Z,95551.82
2019-02-02T09:33:13.109Z,95573.31
2019-02-02T09:38:16.662Z,95579.66
2019-02-02T09:43:20.061Z,95554.98
2019-02-02T09:48:23.556Z,95567.65
2019-02-02T09:53:26.997Z,95572.27
2019-02-02T09:58:30.617Z,95589.92
2019-02-02T10:03:33.987Z,95591.39
2019-02-02T10:08:37.667Z,95576.45
2019-02-02T10:13:41.156Z,95596.08
2019-02-02T10:18:44.531Z,95604.84
2019-02-02T10:23:48.069Z,95604.01
2019-02-02T10:28:51.502Z,95619.62
2019-02-02T10:33:55.096Z,95610.92
2019-02-02T10:38:59.820Z,95597.63
2019-02-02T10:44:03.317Z,95606.98
2019-02-02T10:49:07.005Z,95613.55
2019-02-02T10:54:10.402Z,95610.41
2019-02-02T10:59:13.977Z,95606.62
2019-02-02T11:04:17.566Z,95632.08
2019-02-02T11:09:21.108Z,95624.38
2019-02-02T11:14:24.694Z,95638.81
2019-02-02T11:19:28.351Z,95639.04
2019-02-02T11:24:31.841Z,95650.48
2019-02-02T11:29:35.356Z,95642.84
2019-02-02T11:34:39.934Z,95650.63
2019-02-02T11:39:43.329Z,95669.93
2019-02-02T11:44:47.013Z,95665.82
2019-02-02T11:49:50.438Z,95678.84
2019-02-02T11:54:54.031Z,95680.73
2019-02-02T11:59:57.528Z,95663.00
2019-02-02T12:05:01.030Z,95658.71
2019-02-02T12:10:04.983Z,95674.06
2019-02-02T12:15:10.372Z,95677.22
2019-02-02T12:20:15.466Z,95665.52
2019-02-02T12:25:19.033Z,95661.67
2019-02-02T12:30:26.137Z,95695.05
2019-02-02T12:35:29.881Z,95703.79
2019-02-02T12:40:33.524Z,95693.80
2019-02-02T12:45:45.613Z,95709.59
2019-02-02T12:50:49.134Z,95715.32
2019-02-02T12:55:52.768Z,95728.97
2019-02-02T13:00:56.334Z,95761.59
2019-02-02T13:06:00.056Z,95746.38
2019-02-02T13:11:04.205Z,95754.29
2019-02-02T13:16:07.688Z,95735.55
2019-02-02T13:21:11.444Z,95752.64
2019-02-02T13:26:14.958Z,95742.45
2019-02-02T13:31:20.871Z,95764.14
2019-02-02T13:36:22.432Z,95746.98
2019-02-02T13:41:26.148Z,95754.94
2019-02-02T13:46:29.694Z,95759.42
2019-02-02T13:51:33.413Z,95764.70
2019-02-02T13:56:37.148Z,95780.95
2019-02-02T14:01:42.400Z,95789.52
2019-02-02T14:06:44.671Z,95793.31
2019-02-02T14:11:48.211Z,95807.30
2019-02-02T14:16:53.527Z,95799.27
2019-02-02T14:21:58.245Z,95803.76
2019-02-02T14:27:01.861Z,95791.08
2019-02-02T14:32:05.642Z,95797.62
2019-02-02T14:37:09.434Z,95803.88
2019-02-02T14:42:13.405Z,95814.77
2019-02-02T14:47:16.993Z,95830.56
2019-02-02T14:52:20.767Z,95830.88
2019-02-02T14:57:24.394Z,95838.09
2019-02-02T15:02:28.031Z,95841.96
2019-02-02T15:07:31.709Z,95840.20
2019-02-02T15:12:37.090Z,95847.22
2019-02-02T15:17:39.094Z,95854.20
2019-02-02T15:22:43.100Z,95861.91
2019-02-02T15:27:46.900Z,95869.06
2019-02-02T15:32:50.812Z,95882.66
2019-02-02T15:37:56.221Z,95893.50
2019-02-02T15:43:05.674Z,95898.84
2019-02-02T15:48:12.662Z,95905.91
2019-02-02T15:53:16.264Z,95915.27
2019-02-02T15:58:19.933Z,95936.80
2019-02-02T16:03:23.760Z,95931.23
2019-02-02T16:08:27.482Z,95933.83
2019-02-02T16:13:31.179Z,95942.92
2019-02-02T16:18:34.807Z,95956.44
2019-02-02T16:23:38.809Z,95969.72
2019-02-02T16:28:42.507Z,95991.95
2019-02-02T16:33:46.295Z,95989.31
2019-02-02T16:38:49.859Z,95987.87
2019-02-02T16:43:53.388Z,95995.67
2019-02-02T16:48:57.017Z,95991.20
2019-02-02T16:54:00.552Z,95995.08
2019-02-02T16:59:06.303Z,96011.70
2019-02-02T17:04:15.972Z,96038.45
2019-02-02T17:09:14.128Z,96050.28
2019-02-02T17:14:17.967Z,96065.14
2019-02-02T17:19:20.748Z,96065.29
2019-02-02T17:24:24.423Z,96068.63
2019-02-02T17:29:27.997Z,96071.91
2019-02-02T17:34:31.678Z,96077.59
2019-02-02T17:39:35.260Z,96080.70
2019-02-02T17:44:38.789Z,96088.89
2019-02-02T17:49:42.332Z,96098.51
2019-02-02T17:54:45.889Z,96092.44
2019-02-02T17:59:49.474Z,96095.39
2019-02-02T18:04:53.511Z,96094.80
2019-02-02T18:09:56.884Z,96106.98
2019-02-02T18:15:00.534Z,96115.48
2019-02-02T18:20:05.097Z,96120.73
2019-02-02T18:25:10.238Z,96121.17
2019-02-02T18:30:16.955Z,96125.19
2019-02-02T18:35:20.868Z,96118.13
2019-02-02T18:40:25.142Z,96103.38
2019-02-02T18:45:28.837Z,96099.20
2019-02-02T18:50:32.560Z,96095.03
2019-02-02T18:55:40.002Z,96111.48
2019-02-02T19:00:44.204Z,96115.92
2019-02-02T19:05:47.804Z,96136.94
2019-02-02T19:10:51.528Z,96154.06
2019-02-02T19:15:55.365Z,96150.87
2019-02-02T19:20:59.067Z,96165.09
2019-02-02T19:26:03.112Z,96166.08
2019-02-02T19:31:06.655Z,96174.33
2019-02-02T19:36:10.167Z,96184.89
2019-02-02T19:41:13.816Z,96183.08
2019-02-02T19:46:17.458Z,96202.92
2019-02-02T19:51:21.105Z,96189.13
2019-02-02T19:56:24.873Z,96187.83
2019-02-02T20:01:29.473Z,96205.56
2019-02-02T20:06:34.004Z,96219.36
2019-02-02T20:11:37.796Z,96209.27
2019-02-02T20:16:41.605Z,96227.24
2019-02-02T20:21:45.453Z,96224.16
2019-02-02T20:26:49.230Z,96202.77
2019-02-02T20:31:52.875Z,96190.15
2019-02-02T20:36:56.701Z,96196.59
2019-02-02T20:42:00.639Z,96198.34
2019-02-02T20:47:04.301Z,96198.19
2019-02-02T20:52:07.864Z,96200.85
2019-02-02T20:57:11.727Z,96223.83
2019-02-02T21:02:15.412Z,96219.19
2019-02-02T21:07:19.190Z,96252.55
2019-02-02T21:12:22.887Z,96270.05
2019-02-02T21:17:26.659Z,96290.24
2019-02-02T21:22:30.271Z,96290.80
2019-02-02T21:27:33.808Z,96294.98
2019-02-02T21:32:37.458Z,96316.31
2019-02-02T21:37:40.949Z,96323.16
2019-02-02T21:42:44.442Z,96317.66
2019-02-02T21:47:47.926Z,96311.73
2019-02-02T21:52:52.110Z,96301.61
2019-02-02T21:57:55.687Z,96320.32
2019-02-02T22:02:59.264Z,96305.80
2019-02-02T22:08:02.734Z,96310.25
2019-02-02T22:13:06.908Z,96299.45
2019-02-02T22:18:10.433Z,96289.47
2019-02-02T22:23:14.435Z,96286.50
2019-02-02T22:28:18.267Z,96283.41
2019-02-02T22:33:22.088Z,96279.69
2019-02-02T22:38:25.737Z,96281.20
2019-02-02T22:43:29.687Z,96281.11
2019-02-02T22:48:33.741Z,96272.98
2019-02-02T22:53:37.683Z,96279.91
2019-02-02T22:58:41.536Z,96286.20
2019-02-02T23:03:49.752Z,96303.97
2019-02-02T23:09:05.704Z,96314.76
2019-02-02T23:14:40.743Z,96308.83
2019-02-02T23:19:41.993Z,96303.55
2019-02-02T23:24:45.634Z,96297.66
2019-02-02T23:29:49.271Z,96286.44
2019-02-02T23:34:52.862Z,96279.27
2019-02-02T23:39:56.411Z,96278.75
2019-02-02T23:44:59.974Z,96254.00
2019-02-02T23:50:03.673Z,96313.73
2019-02-02T23:55:07.160Z,96314.23
